createdAt,value
2023-02-16T00:00:03.292Z,3.1
2023-02-16T00:03:03.281Z,3.1
2023-02-16T00:06:03.258Z,3.1
2023-02-16T00:09:03.264Z,3.1
2023-02-16T00:12:03.254Z,3.1
2023-02-16T00:15:03.281Z,3.1
2023-02-16T00:18:03.268Z,3.1
2023-02-16T00:21:03.503Z,3.1
2023-02-16T00:24:03.272Z,3.1
2023-02-16T00:27:03.261Z,3.1
2023-02-16T00:30:03.329Z,3.1
2023-02-16T00:33:03.270Z,3.1
2023-02-16T00:36:03.260Z,3.2
2023-02-16T00:39:03.261Z,3.1
2023-02-16T00:42:03.271Z,3.1
2023-02-16T00:45:03.269Z,3.2
2023-02-16T00:48:03.268Z,3.2
2023-02-16T00:51:11.113Z,3.2
2023-02-16T00:57:03.341Z,3.2
2023-02-16T01:00:03.288Z,3.2
2023-02-16T01:03:03.306Z,3.2
2023-02-16T01:06:03.299Z,3.2
2023-02-16T01:09:03.292Z,3.2
2023-02-16T01:12:03.302Z,3.2
2023-02-16T01:15:03.305Z,3.2
2023-02-16T01:18:03.284Z,3.2
2023-02-16T01:21:03.480Z,3.2
2023-02-16T01:24:03.303Z,3.2
2023-02-16T01:27:03.290Z,3.2
2023-02-16T01:30:03.333Z,3.2
2023-02-16T01:33:03.288Z,3.2
2023-02-16T01:36:03.300Z,3.2
2023-02-16T01:39:03.296Z,3.2
2023-02-16T01:42:03.301Z,3.2
2023-02-16T01:45:03.291Z,3.2
2023-02-16T01:48:03.297Z,3.2
2023-02-16T01:51:03.632Z,3.2
2023-02-16T01:54:03.306Z,3.2
2023-02-16T01:57:03.302Z,3.2
2023-02-16T02:00:03.303Z,3.2
2023-02-16T02:03:03.338Z,3.2
2023-02-16T02:06:03.304Z,3.2
2023-02-16T02:09:03.303Z,3.2
2023-02-16T02:12:03.307Z,3.2
2023-02-16T02:15:03.301Z,3.2
2023-02-16T02:18:03.297Z,3.2
2023-02-16T02:21:03.580Z,3.2
2023-02-16T02:24:03.304Z,3.2
2023-02-16T02:27:03.307Z,3.2
2023-02-16T02:30:03.353Z,3.2
2023-02-16T02:33:03.317Z,3.2
2023-02-16T02:36:03.309Z,3.1
2023-02-16T02:39:03.311Z,3.1
2023-02-16T02:42:03.298Z,3.1
2023-02-16T02:45:03.298Z,3.2
2023-02-16T02:48:03.310Z,3.1
2023-02-16T02:51:03.577Z,3.1
2023-02-16T02:54:03.299Z,3.1
2023-02-16T02:57:03.307Z,3.1
2023-02-16T03:00:03.296Z,3.2
2023-02-16T03:03:03.299Z,3.2
2023-02-16T03:06:03.303Z,3.1
2023-02-16T03:09:03.301Z,3.1
2023-02-16T03:12:03.306Z,3.1
2023-02-16T03:15:03.298Z,3.1
2023-02-16T03:18:03.298Z,3.1
2023-02-16T03:21:03.559Z,3.1
2023-02-16T03:24:03.294Z,3.1
2023-02-16T03:27:03.363Z,3.1
2023-02-16T03:30:03.330Z,3.1
2023-02-16T03:33:03.294Z,3.1
2023-02-16T03:36:03.358Z,3.1
2023-02-16T03:39:03.316Z,3.1
2023-02-16T03:42:03.293Z,3.1
2023-02-16T03:48:03.301Z,3.1
2023-02-16T03:51:03.590Z,3.1
2023-02-16T03:54:03.305Z,3.1
2023-02-16T03:57:03.364Z,3.1
2023-02-16T04:00:03.305Z,3.1
2023-02-16T04:03:03.300Z,3.1
2023-02-16T04:06:03.311Z,3.1
2023-02-16T04:09:03.303Z,3.1
2023-02-16T04:12:03.306Z,3
2023-02-16T04:15:03.310Z,3
2023-02-16T04:18:03.301Z,3
2023-02-16T04:21:03.504Z,3
2023-02-16T04:24:03.306Z,3
2023-02-16T04:27:03.309Z,3
2023-02-16T04:30:03.401Z,3
2023-02-16T04:33:03.315Z,3
2023-02-16T04:36:03.307Z,2.9
2023-02-16T04:39:03.315Z,2.9
2023-02-16T04:42:03.305Z,2.9
2023-02-16T04:45:03.315Z,2.9
2023-02-16T04:48:03.304Z,2.9
2023-02-16T04:51:03.459Z,2.9
2023-02-16T04:54:03.318Z,2.9
2023-02-16T04:57:03.318Z,2.9
2023-02-16T05:00:03.301Z,2.9
2023-02-16T05:03:03.305Z,2.9
2023-02-16T05:06:03.309Z,2.9
2023-02-16T05:09:03.318Z,2.9
2023-02-16T05:12:03.313Z,2.9
2023-02-16T05:15:03.309Z,2.9
2023-02-16T05:18:03.309Z,2.9
2023-02-16T05:21:03.556Z,2.9
2023-02-16T05:24:03.320Z,2.9
2023-02-16T05:27:03.323Z,2.9
2023-02-16T05:30:03.367Z,2.8
2023-02-16T05:33:03.314Z,2.8
2023-02-16T05:36:03.310Z,2.8
2023-02-16T05:39:03.321Z,2.8
2023-02-16T05:42:03.320Z,2.8
2023-02-16T05:45:03.324Z,2.8
2023-02-16T05:48:03.318Z,2.8
2023-02-16T05:51:03.695Z,2.8
2023-02-16T05:54:03.327Z,2.8
2023-02-16T05:57:03.326Z,2.8
2023-02-16T06:00:03.339Z,2.7
2023-02-16T06:03:03.327Z,2.7
2023-02-16T06:06:03.329Z,2.7
2023-02-16T06:09:03.338Z,2.7
2023-02-16T06:12:03.451Z,2.7
2023-02-16T06:15:03.337Z,2.7
2023-02-16T06:18:03.341Z,2.6
2023-02-16T06:21:03.626Z,2.6
2023-02-16T06:24:03.364Z,2.6
2023-02-16T06:27:03.324Z,2.6
2023-02-16T06:30:03.408Z,2.6
2023-02-16T06:33:03.326Z,2.6
2023-02-16T06:36:03.328Z,2.6
2023-02-16T06:39:03.347Z,2.7
2023-02-16T06:42:03.329Z,2.7
2023-02-16T06:45:03.332Z,2.7
2023-02-16T06:48:03.356Z,2.7
2023-02-16T06:51:03.585Z,2.6
2023-02-16T06:54:03.315Z,2.6
2023-02-16T06:57:03.326Z,2.7
2023-02-16T07:00:03.517Z,2.7
2023-02-16T07:03:03.401Z,2.7
2023-02-16T07:06:03.357Z,2.7
2023-02-16T07:09:03.347Z,2.6
2023-02-16T07:12:03.356Z,2.6
2023-02-16T07:15:03.366Z,2.6
2023-02-16T07:18:03.348Z,2.6
2023-02-16T07:21:03.623Z,2.6
2023-02-16T07:24:03.365Z,2.6
2023-02-16T07:27:03.410Z,2.6
2023-02-16T07:30:03.464Z,2.5
2023-02-16T07:33:03.365Z,2.5
2023-02-16T07:36:03.361Z,2.5
2023-02-16T07:39:03.360Z,2.5
2023-02-16T07:42:03.359Z,2.5
2023-02-16T07:45:03.365Z,2.5
2023-02-16T07:48:03.358Z,2.5
2023-02-16T07:54:03.354Z,2.4
2023-02-16T07:57:03.390Z,2.5
2023-02-16T08:00:03.355Z,2.5
2023-02-16T08:03:03.434Z,2.5
2023-02-16T08:06:03.364Z,2.5
2023-02-16T08:09:03.359Z,2.5
2023-02-16T08:12:03.352Z,2.5
2023-02-16T08:15:03.367Z,2.5
2023-02-16T08:18:03.360Z,2.5
2023-02-16T08:21:04.601Z,2.5
2023-02-16T08:24:03.371Z,2.5
2023-02-16T08:27:03.365Z,2.4
2023-02-16T08:30:03.431Z,2.4
2023-02-16T08:33:03.370Z,2.4
2023-02-16T08:36:03.679Z,2.4
2023-02-16T08:39:03.373Z,2.5
2023-02-16T08:42:03.371Z,2.5
2023-02-16T08:45:03.472Z,2.5
2023-02-16T08:48:03.374Z,2.4
2023-02-16T08:51:03.364Z,2.4
2023-02-16T08:54:04.870Z,2.4
2023-02-16T08:57:03.375Z,2.5
2023-02-16T09:00:03.364Z,2.5
2023-02-16T09:03:03.356Z,2.5
2023-02-16T09:06:03.697Z,2.5
2023-02-16T09:09:03.365Z,2.5
2023-02-16T09:12:03.362Z,2.5
2023-02-16T09:15:03.381Z,2.5
2023-02-16T09:18:08.367Z,2.5
2023-02-16T09:21:03.368Z,2.5
2023-02-16T09:24:03.366Z,2.6
2023-02-16T09:27:03.376Z,2.6
2023-02-16T09:30:03.393Z,2.6
2023-02-16T09:33:03.366Z,2.6
2023-02-16T09:36:03.592Z,2.6
2023-02-16T09:39:03.376Z,2.6
2023-02-16T09:42:03.370Z,2.7
2023-02-16T09:45:03.371Z,2.7
2023-02-16T09:48:03.364Z,2.7
2023-02-16T09:51:03.364Z,2.7
2023-02-16T09:54:03.372Z,2.7
2023-02-16T09:57:03.382Z,2.8
2023-02-16T10:00:03.402Z,2.8
2023-02-16T10:03:03.375Z,2.8
2023-02-16T10:06:03.666Z,2.9
2023-02-16T10:09:03.382Z,2.9
2023-02-16T10:12:03.375Z,2.9
2023-02-16T10:18:03.373Z,2.9
2023-02-16T10:21:03.804Z,3
2023-02-16T10:24:03.376Z,3
2023-02-16T10:27:03.385Z,3
2023-02-16T10:33:03.378Z,3.1
2023-02-16T10:36:03.401Z,3.1
2023-02-16T10:39:03.398Z,3.1
2023-02-16T10:42:03.391Z,3.1
2023-02-16T10:45:03.407Z,3.1
2023-02-16T10:48:03.388Z,3.1
2023-02-16T10:51:03.809Z,3.2
2023-02-16T10:54:03.393Z,3.2
2023-02-16T10:57:03.391Z,3.3
2023-02-16T11:00:03.398Z,3.3
2023-02-16T11:03:03.397Z,3.3
2023-02-16T11:06:03.556Z,3.4
2023-02-16T11:09:03.404Z,3.5
2023-02-16T11:12:03.403Z,3.5
2023-02-16T11:15:03.435Z,3.5
2023-02-16T11:18:03.388Z,3.6
2023-02-16T11:21:03.804Z,3.6
2023-02-16T11:24:03.396Z,3.6
2023-02-16T11:27:03.417Z,3.6
2023-02-16T11:30:03.434Z,3.7
2023-02-16T11:33:03.388Z,3.7
2023-02-16T11:36:03.416Z,3.7
2023-02-16T11:39:03.415Z,3.8
2023-02-16T11:42:03.385Z,3.8
2023-02-16T11:45:03.395Z,3.8
2023-02-16T11:48:03.406Z,3.9
2023-02-16T11:51:03.633Z,3.9
2023-02-16T11:54:03.388Z,3.9
2023-02-16T11:57:03.412Z,4
2023-02-16T12:00:03.403Z,4
2023-02-16T12:03:03.382Z,4
2023-02-16T12:06:03.394Z,4.1
2023-02-16T12:09:03.409Z,4.1
2023-02-16T12:12:03.508Z,4.1
2023-02-16T12:15:03.385Z,4.2
2023-02-16T12:18:03.398Z,4.2
2023-02-16T12:21:03.402Z,4.2
2023-02-16T12:24:03.385Z,4.2
2023-02-16T12:27:03.391Z,4.3
2023-02-16T12:30:03.491Z,4.3
2023-02-16T12:33:03.400Z,4.3
2023-02-16T12:36:03.784Z,4.3
2023-02-16T12:39:03.382Z,4.4
2023-02-16T12:42:03.496Z,4.4
2023-02-16T12:45:03.599Z,4.4
2023-02-16T12:48:03.437Z,4.5
2023-02-16T12:51:03.599Z,4.5
2023-02-16T12:54:03.410Z,4.6
2023-02-16T12:57:03.412Z,4.6
2023-02-16T13:00:03.464Z,4.6
2023-02-16T13:03:04.885Z,4.6
2023-02-16T13:06:03.742Z,4.6
2023-02-16T13:09:03.452Z,4.6
2023-02-16T13:12:03.445Z,4.7
2023-02-16T13:15:03.448Z,4.7
2023-02-16T13:18:03.470Z,4.7
2023-02-16T13:21:03.451Z,4.7
2023-02-16T13:24:03.452Z,4.7
2023-02-16T13:27:03.477Z,4.7
2023-02-16T13:30:03.479Z,4.7
2023-02-16T13:33:03.459Z,4.8
2023-02-16T13:36:03.680Z,4.8
2023-02-16T13:39:03.466Z,4.8
2023-02-16T13:42:03.447Z,4.8
2023-02-16T13:45:03.449Z,4.8
2023-02-16T13:48:03.457Z,4.8
2023-02-16T13:51:03.624Z,4.8
2023-02-16T13:54:03.450Z,4.8
2023-02-16T13:57:03.521Z,4.9
2023-02-16T14:00:03.460Z,4.9
2023-02-16T14:03:03.462Z,4.9
2023-02-16T14:06:03.665Z,4.9
2023-02-16T14:09:03.469Z,4.9
2023-02-16T14:12:03.456Z,4.9
2023-02-16T14:15:03.564Z,4.9
2023-02-16T14:18:03.454Z,4.9
2023-02-16T14:21:03.980Z,4.9
2023-02-16T14:24:03.457Z,4.9
2023-02-16T14:27:03.455Z,4.9
2023-02-16T14:30:03.493Z,4.9
2023-02-16T14:33:03.446Z,4.9
2023-02-16T14:36:03.456Z,4.9
2023-02-16T14:39:03.449Z,4.9
2023-02-16T14:42:03.452Z,4.9
2023-02-16T14:45:03.532Z,4.9
2023-02-16T14:48:03.449Z,4.9
2023-02-16T14:51:03.445Z,5
2023-02-16T14:54:03.455Z,5
2023-02-16T14:57:03.453Z,5
2023-02-16T15:00:03.548Z,5
2023-02-16T15:03:03.439Z,5
2023-02-16T15:06:03.733Z,5
2023-02-16T15:09:03.461Z,5
2023-02-16T15:12:03.446Z,5
2023-02-16T15:15:03.472Z,5
2023-02-16T15:18:03.458Z,5
2023-02-16T15:21:03.457Z,5
2023-02-16T15:24:03.458Z,5
2023-02-16T15:27:03.455Z,5
2023-02-16T15:30:03.491Z,5
2023-02-16T15:33:03.459Z,5
2023-02-16T15:36:03.705Z,5
2023-02-16T15:42:03.462Z,5
2023-02-16T15:45:03.452Z,5
2023-02-16T15:48:03.457Z,5
2023-02-16T15:51:03.464Z,5
2023-02-16T15:54:03.457Z,5
2023-02-16T15:57:03.485Z,5
2023-02-16T16:00:03.528Z,5
2023-02-16T16:03:03.453Z,5
2023-02-16T16:06:03.783Z,5
2023-02-16T16:09:03.460Z,4.9
2023-02-16T16:12:03.462Z,5
2023-02-16T16:15:03.456Z,4.9
2023-02-16T16:18:03.510Z,4.9
2023-02-16T16:21:03.689Z,4.9
2023-02-16T16:24:03.540Z,4.9
2023-02-16T16:27:03.481Z,4.9
2023-02-16T16:30:03.875Z,4.9
2023-02-16T16:33:03.481Z,4.9
2023-02-16T16:36:03.737Z,4.9
2023-02-16T16:39:03.480Z,4.9
2023-02-16T16:42:03.476Z,4.9
2023-02-16T16:45:05.493Z,4.9
2023-02-16T16:48:03.489Z,4.8
2023-02-16T16:51:03.746Z,4.8
2023-02-16T16:54:03.484Z,4.8
2023-02-16T16:57:03.478Z,4.8
2023-02-16T17:00:03.474Z,4.8
2023-02-16T17:03:03.517Z,4.8
2023-02-16T17:06:03.820Z,4.8
2023-02-16T17:09:03.478Z,4.8
2023-02-16T17:12:03.484Z,4.8
2023-02-16T17:15:03.481Z,4.8
2023-02-16T17:18:03.478Z,4.7
2023-02-16T17:21:03.487Z,4.7
2023-02-16T17:24:03.483Z,4.7
2023-02-16T17:27:03.479Z,4.7
2023-02-16T17:30:03.506Z,4.7
2023-02-16T17:33:03.589Z,4.6
2023-02-16T17:36:03.839Z,4.6
2023-02-16T17:39:03.537Z,4.6
2023-02-16T17:42:03.540Z,4.5
2023-02-16T17:45:03.545Z,4.5
2023-02-16T17:48:03.547Z,4.5
2023-02-16T17:51:03.551Z,4.5
2023-02-16T17:54:05.509Z,4.4
2023-02-16T18:00:03.552Z,4.4
2023-02-16T18:03:03.561Z,4.4
2023-02-16T18:06:03.742Z,4.5
2023-02-16T18:09:03.546Z,4.5
2023-02-16T18:12:03.559Z,4.5
2023-02-16T18:15:03.541Z,4.5
2023-02-16T18:18:03.557Z,4.5
2023-02-16T18:24:03.544Z,4.5
2023-02-16T18:27:03.540Z,4.5
2023-02-16T18:30:03.567Z,4.5
2023-02-16T18:33:03.559Z,4.5
2023-02-16T18:36:03.826Z,4.5
2023-02-16T18:39:03.561Z,4.5
2023-02-16T18:42:03.563Z,4.5
2023-02-16T18:45:03.701Z,4.5
2023-02-16T18:48:03.566Z,4.5
2023-02-16T18:51:03.584Z,4.6
2023-02-16T18:54:03.568Z,4.6
2023-02-16T18:57:03.575Z,4.6
2023-02-16T19:00:03.571Z,4.6
2023-02-16T19:03:03.667Z,4.6
2023-02-16T19:09:03.567Z,4.6
2023-02-16T19:12:03.565Z,4.6
2023-02-16T19:15:03.588Z,4.6
2023-02-16T19:18:03.579Z,4.6
2023-02-16T19:21:03.559Z,4.6
2023-02-16T19:24:03.570Z,4.7
2023-02-16T19:27:03.577Z,4.7
2023-02-16T19:30:03.616Z,4.7
2023-02-16T19:33:03.573Z,4.7
2023-02-16T19:36:03.907Z,4.7
2023-02-16T19:39:03.584Z,4.7
2023-02-16T19:42:03.563Z,4.7
2023-02-16T19:45:03.581Z,4.7
2023-02-16T19:48:03.570Z,4.7
2023-02-16T19:51:03.568Z,4.7
2023-02-16T19:54:03.563Z,4.7
2023-02-16T19:57:03.561Z,4.7
2023-02-16T20:00:03.567Z,4.8
2023-02-16T20:03:03.596Z,4.8
2023-02-16T20:06:03.731Z,4.8
2023-02-16T20:09:03.562Z,4.8
2023-02-16T20:12:03.569Z,4.8
2023-02-16T20:15:03.574Z,4.8
2023-02-16T20:18:03.572Z,4.8
2023-02-16T20:21:03.564Z,4.8
2023-02-16T20:27:03.566Z,4.8
2023-02-16T20:30:03.635Z,4.8
2023-02-16T20:33:03.565Z,4.8
2023-02-16T20:36:03.806Z,4.8
2023-02-16T20:39:03.572Z,4.8
2023-02-16T20:42:03.566Z,4.8
2023-02-16T20:45:03.582Z,4.8
2023-02-16T20:48:03.565Z,4.9
2023-02-16T20:51:03.583Z,4.9
2023-02-16T20:54:03.580Z,4.9
2023-02-16T20:57:03.575Z,4.9
2023-02-16T21:00:03.579Z,4.9
2023-02-16T21:03:03.581Z,4.8
2023-02-16T21:06:04.011Z,4.8
2023-02-16T21:09:03.570Z,4.8
2023-02-16T21:12:03.574Z,4.8
2023-02-16T21:15:03.567Z,4.8
2023-02-16T21:18:03.567Z,4.8
2023-02-16T21:21:03.582Z,4.8
2023-02-16T21:24:03.575Z,4.8
2023-02-16T21:27:03.569Z,4.8
2023-02-16T21:30:03.624Z,4.8
2023-02-16T21:33:03.567Z,4.9
2023-02-16T21:36:03.963Z,4.9
2023-02-16T21:39:03.575Z,4.9
2023-02-16T21:42:03.570Z,4.9
2023-02-16T21:45:03.566Z,4.9
2023-02-16T21:48:03.592Z,4.9
2023-02-16T21:51:03.584Z,4.9
2023-02-16T21:54:03.576Z,5
2023-02-16T21:57:03.581Z,5
2023-02-16T22:00:03.568Z,5
2023-02-16T22:03:03.575Z,5
2023-02-16T22:06:03.950Z,5
2023-02-16T22:09:03.576Z,5
2023-02-16T22:12:03.597Z,5
2023-02-16T22:15:03.582Z,5
2023-02-16T22:18:03.576Z,5.1
2023-02-16T22:21:03.566Z,5.1
2023-02-16T22:24:03.575Z,5.1
2023-02-16T22:27:03.577Z,5.1
2023-02-16T22:30:03.597Z,5.2
2023-02-16T22:33:03.571Z,5.2
2023-02-16T22:36:03.887Z,5.2
2023-02-16T22:39:03.579Z,5.2
2023-02-16T22:42:03.590Z,5.2
2023-02-16T22:45:03.587Z,5.3
2023-02-16T22:51:03.582Z,5.3
2023-02-16T22:54:03.588Z,5.3
2023-02-16T22:57:03.593Z,5.3
2023-02-16T23:00:03.581Z,5.3
2023-02-16T23:03:03.584Z,5.3
2023-02-16T23:06:03.862Z,5.3
2023-02-16T23:09:03.619Z,5.3
2023-02-16T23:12:03.591Z,5.4
2023-02-16T23:15:03.580Z,5.4
2023-02-16T23:18:03.592Z,5.4
2023-02-16T23:21:03.588Z,5.4
2023-02-16T23:24:03.578Z,5.4
2023-02-16T23:27:03.586Z,5.4
2023-02-16T23:30:03.616Z,5.5
2023-02-16T23:33:03.580Z,5.5
2023-02-16T23:36:03.822Z,5.5
2023-02-16T23:39:03.604Z,5.5
2023-02-16T23:42:03.596Z,5.6
2023-02-16T23:45:03.595Z,5.6
2023-02-16T23:48:03.613Z,5.6
2023-02-16T23:51:03.598Z,5.6
2023-02-16T23:54:03.598Z,5.6
2023-02-16T23:57:03.602Z,5.6
